Airfield :







YOU CAN JOIN US ON...

 
LOGIN :

Register | Disclaimer

   EN    FR    IT 

 









Legend :    VFR   Marginal VFR   IFR   Intensive IFR   Very Intensive IFR
Visi :
Ceiling :
>= 8 km
>= 3000ft
5 to 8 km
1000 to 3000 ft
1500m to 5 km
500 to 1000 ft
800 to 1500m
200 to 500 ft
< 800m
< 200 ft
Symbols :   Thunderstorms  Fog  Heavy snow  Heavy precipitations  Wind > 20 kt







- Airport Elevation : 160 ft
- IATA code : YYR


CYYR - Goose Bay

CURRENT METAR :
  • 180200Z 32006KT 15SM BKN038 BKN240 03/M00 A3026 RMK SC6CI1 SLP249

EXPIRED METARs :
  • 180100Z 36006KT 15SM FEW046 SCT240 03/M01 A3026 RMK SC2CI2 SLP249
  • 180000Z 36007KT 15SM FEW035 FEW048 FEW240 05/M00 A3026 RMK SC1SC1CI1 SLP250

TAF TAF CYYR
Valid from the 18 at 00:00 until the 19 at 00:00 UTC


172330Z 1800/1824 02008KT P6SM BKN040 OVC240
BECMG 1800/1802 FEW040 SCT240
FM180600 VRB03KT P6SM FEW012
FM181200 25005KT P6SM SCT040
FM181600 30010KT P6SM BKN040
BECMG 1822/1824 27008KT RMK NXT FCST BY 180600Z
No reported NOTAMs for that airfield.



MET'MAP, your aeronautical weather chart ! - Copyright ORBIFLY December 2007 - Disclaimer

ORBIFLY MET'MAP TEAM :

Programming & Development : Alexandra Zaïnal
Concept & Development : Baudouin d'Aumeries
Co-Development & Prog : Marc-Olivier Méhu
Technical & hardware support : Manuel Goepfert

Contact : metmap@orbifly.com




SOURCES & CREDITS :

   NOAA